sensor_id;sensor_type;location;lat;lon;timestamp;P1;durP1;ratioP1;P2;durP2;ratioP2
23078;SDS011;11707;50.830;4.364;2023-03-14T00:02:16;5.35;;;1.30;;
23078;SDS011;11707;50.830;4.364;2023-03-14T00:04:42;7.00;;;1.70;;
23078;SDS011;11707;50.830;4.364;2023-03-14T00:07:09;5.72;;;1.20;;
23078;SDS011;11707;50.830;4.364;2023-03-14T00:09:36;8.38;;;2.00;;
23078;SDS011;11707;50.830;4.364;2023-03-14T00:12:02;7.68;;;1.65;;
23078;SDS011;11707;50.830;4.364;2023-03-14T00:14:28;5.97;;;1.45;;
23078;SDS011;11707;50.830;4.364;2023-03-14T00:16:55;5.50;;;1.10;;
23078;SDS011;11707;50.830;4.364;2023-03-14T00:19:21;7.32;;;1.83;;
23078;SDS011;11707;50.830;4.364;2023-03-14T00:21:47;12.75;;;2.17;;
23078;SDS011;11707;50.830;4.364;2023-03-14T00:24:12;7.93;;;1.90;;
23078;SDS011;11707;50.830;4.364;2023-03-14T00:26:38;8.70;;;2.40;;
23078;SDS011;11707;50.830;4.364;2023-03-14T00:29:04;11.55;;;2.00;;
23078;SDS011;11707;50.830;4.364;2023-03-14T00:31:29;5.78;;;1.33;;
23078;SDS011;11707;50.830;4.364;2023-03-14T00:33:56;10.50;;;2.15;;
23078;SDS011;11707;50.830;4.364;2023-03-14T00:36:22;19.17;;;3.05;;
23078;SDS011;11707;50.830;4.364;2023-03-14T00:38:49;12.05;;;2.10;;
23078;SDS011;11707;50.830;4.364;2023-03-14T00:41:17;8.30;;;1.63;;
23078;SDS011;11707;50.830;4.364;2023-03-14T00:43:44;10.88;;;2.60;;
23078;SDS011;11707;50.830;4.364;2023-03-14T00:46:10;8.93;;;1.88;;
23078;SDS011;11707;50.830;4.364;2023-03-14T00:48:37;9.90;;;2.22;;
23078;SDS011;11707;50.830;4.364;2023-03-14T00:51:04;11.13;;;2.03;;
23078;SDS011;11707;50.830;4.364;2023-03-14T00:53:31;13.18;;;2.38;;
23078;SDS011;11707;50.830;4.364;2023-03-14T00:56:05;6.68;;;1.65;;
23078;SDS011;11707;50.830;4.364;2023-03-14T00:58:33;8.98;;;2.20;;
23078;SDS011;11707;50.830;4.364;2023-03-14T01:00:59;9.70;;;2.13;;
23078;SDS011;11707;50.830;4.364;2023-03-14T01:03:31;5.65;;;1.73;;
23078;SDS011;11707;50.830;4.364;2023-03-14T01:06:06;8.63;;;1.75;;
23078;SDS011;11707;50.830;4.364;2023-03-14T01:08:36;16.08;;;2.00;;
23078;SDS011;11707;50.830;4.364;2023-03-14T01:11:06;7.43;;;2.10;;
23078;SDS011;11707;50.830;4.364;2023-03-14T01:13:36;12.27;;;2.90;;
23078;SDS011;11707;50.830;4.364;2023-03-14T01:16:08;11.20;;;2.53;;
23078;SDS011;11707;50.830;4.364;2023-03-14T01:18:35;8.48;;;1.42;;
23078;SDS011;11707;50.830;4.364;2023-03-14T01:21:03;10.85;;;2.22;;
23078;SDS011;11707;50.830;4.364;2023-03-14T01:23:34;10.60;;;1.80;;
23078;SDS011;11707;50.830;4.364;2023-03-14T01:26:00;10.68;;;2.42;;
23078;SDS011;11707;50.830;4.364;2023-03-14T01:28:28;12.30;;;2.33;;
23078;SDS011;11707;50.830;4.364;2023-03-14T01:30:53;9.50;;;2.58;;
23078;SDS011;11707;50.830;4.364;2023-03-14T01:33:19;6.38;;;1.70;;
23078;SDS011;11707;50.830;4.364;2023-03-14T01:35:45;9.43;;;1.77;;
23078;SDS011;11707;50.830;4.364;2023-03-14T01:38:11;9.00;;;1.20;;
23078;SDS011;11707;50.830;4.364;2023-03-14T01:40:43;10.18;;;1.67;;
23078;SDS011;11707;50.830;4.364;2023-03-14T01:43:18;6.82;;;1.45;;
23078;SDS011;11707;50.830;4.364;2023-03-14T01:48:40;7.88;;;1.23;;
23078;SDS011;11707;50.830;4.364;2023-03-14T01:51:15;4.60;;;1.35;;
23078;SDS011;11707;50.830;4.364;2023-03-14T01:53:44;5.85;;;1.20;;
23078;SDS011;11707;50.830;4.364;2023-03-14T01:56:14;5.10;;;1.10;;
23078;SDS011;11707;50.830;4.364;2023-03-14T01:58:43;4.65;;;1.20;;
23078;SDS011;11707;50.830;4.364;2023-03-14T02:01:13;4.90;;;1.05;;
23078;SDS011;11707;50.830;4.364;2023-03-14T02:03:50;7.03;;;1.30;;
23078;SDS011;11707;50.830;4.364;2023-03-14T02:06:21;9.70;;;1.73;;
23078;SDS011;11707;50.830;4.364;2023-03-14T02:08:53;8.48;;;1.20;;
23078;SDS011;11707;50.830;4.364;2023-03-14T02:11:19;4.95;;;0.90;;
23078;SDS011;11707;50.830;4.364;2023-03-14T02:13:46;5.72;;;1.17;;
23078;SDS011;11707;50.830;4.364;2023-03-14T02:16:12;5.40;;;1.40;;
23078;SDS011;11707;50.830;4.364;2023-03-14T02:18:38;6.68;;;1.08;;
23078;SDS011;11707;50.830;4.364;2023-03-14T02:21:08;4.75;;;1.05;;
23078;SDS011;11707;50.830;4.364;2023-03-14T02:24:04;5.78;;;0.70;;
23078;SDS011;11707;50.830;4.364;2023-03-14T02:29:33;3.15;;;0.98;;
23078;SDS011;11707;50.830;4.364;2023-03-14T02:32:02;9.88;;;1.52;;
23078;SDS011;11707;50.830;4.364;2023-03-14T02:34:30;7.65;;;1.83;;
23078;SDS011;11707;50.830;4.364;2023-03-14T02:36:56;8.95;;;1.20;;
23078;SDS011;11707;50.830;4.364;2023-03-14T02:39:29;6.38;;;1.85;;
23078;SDS011;11707;50.830;4.364;2023-03-14T02:42:09;3.08;;;1.27;;
23078;SDS011;11707;50.830;4.364;2023-03-14T02:44:35;4.95;;;1.77;;
23078;SDS011;11707;50.830;4.364;2023-03-14T02:47:02;8.20;;;2.00;;
23078;SDS011;11707;50.830;4.364;2023-03-14T02:49:29;8.68;;;2.42;;
23078;SDS011;11707;50.830;4.364;2023-03-14T02:51:56;7.97;;;3.08;;
23078;SDS011;11707;50.830;4.364;2023-03-14T02:54:22;14.25;;;2.92;;
23078;SDS011;11707;50.830;4.364;2023-03-14T02:56:48;19.35;;;4.20;;
23078;SDS011;11707;50.830;4.364;2023-03-14T02:59:16;17.90;;;3.88;;
23078;SDS011;11707;50.830;4.364;2023-03-14T03:01:44;11.20;;;3.55;;
23078;SDS011;11707;50.830;4.364;2023-03-14T03:04:10;7.60;;;3.17;;
23078;SDS011;11707;50.830;4.364;2023-03-14T03:06:35;14.43;;;3.95;;
23078;SDS011;11707;50.830;4.364;2023-03-14T03:09:01;11.65;;;3.33;;
23078;SDS011;11707;50.830;4.364;2023-03-14T03:11:27;15.32;;;4.40;;
23078;SDS011;11707;50.830;4.364;2023-03-14T03:13:52;9.40;;;2.83;;
23078;SDS011;11707;50.830;4.364;2023-03-14T03:16:18;11.77;;;3.25;;
23078;SDS011;11707;50.830;4.364;2023-03-14T03:18:44;14.38;;;3.78;;
23078;SDS011;11707;50.830;4.364;2023-03-14T03:21:10;11.98;;;3.15;;
23078;SDS011;11707;50.830;4.364;2023-03-14T03:23:35;14.90;;;3.35;;
23078;SDS011;11707;50.830;4.364;2023-03-14T03:26:01;10.30;;;3.30;;
23078;SDS011;11707;50.830;4.364;2023-03-14T03:28:28;11.18;;;4.43;;
23078;SDS011;11707;50.830;4.364;2023-03-14T03:30:53;14.10;;;3.95;;
23078;SDS011;11707;50.830;4.364;2023-03-14T03:33:19;12.18;;;4.80;;
23078;SDS011;11707;50.830;4.364;2023-03-14T03:35:47;13.65;;;4.07;;
23078;SDS011;11707;50.830;4.364;2023-03-14T03:38:17;15.15;;;4.40;;
23078;SDS011;11707;50.830;4.364;2023-03-14T03:40:45;14.27;;;6.00;;
23078;SDS011;11707;50.830;4.364;2023-03-14T03:43:12;11.73;;;5.13;;
23078;SDS011;11707;50.830;4.364;2023-03-14T03:45:38;11.07;;;4.82;;
23078;SDS011;11707;50.830;4.364;2023-03-14T03:48:04;9.65;;;4.82;;
23078;SDS011;11707;50.830;4.364;2023-03-14T03:50:30;13.07;;;5.20;;
23078;SDS011;11707;50.830;4.364;2023-03-14T03:52:55;12.20;;;4.68;;
23078;SDS011;11707;50.830;4.364;2023-03-14T03:55:21;15.07;;;4.82;;
23078;SDS011;11707;50.830;4.364;2023-03-14T03:57:46;9.57;;;4.22;;
23078;SDS011;11707;50.830;4.364;2023-03-14T04:00:12;14.60;;;4.30;;
23078;SDS011;11707;50.830;4.364;2023-03-14T04:02:38;12.48;;;4.00;;
23078;SDS011;11707;50.830;4.364;2023-03-14T04:05:04;12.05;;;4.78;;
23078;SDS011;11707;50.830;4.364;2023-03-14T04:07:35;16.05;;;4.70;;
23078;SDS011;11707;50.830;4.364;2023-03-14T04:10:01;10.13;;;4.63;;
23078;SDS011;11707;50.830;4.364;2023-03-14T04:12:29;11.25;;;3.78;;
23078;SDS011;11707;50.830;4.364;2023-03-14T04:14:55;9.52;;;4.53;;
23078;SDS011;11707;50.830;4.364;2023-03-14T04:17:20;11.40;;;5.35;;
23078;SDS011;11707;50.830;4.364;2023-03-14T04:19:46;16.27;;;4.53;;
23078;SDS011;11707;50.830;4.364;2023-03-14T04:22:14;14.27;;;5.07;;
23078;SDS011;11707;50.830;4.364;2023-03-14T04:24:40;11.50;;;4.15;;
23078;SDS011;11707;50.830;4.364;2023-03-14T04:27:05;13.95;;;4.75;;
23078;SDS011;11707;50.830;4.364;2023-03-14T04:29:31;15.82;;;5.35;;
23078;SDS011;11707;50.830;4.364;2023-03-14T04:31:57;12.57;;;4.95;;
23078;SDS011;11707;50.830;4.364;2023-03-14T04:34:25;7.18;;;3.88;;
23078;SDS011;11707;50.830;4.364;2023-03-14T04:36:51;7.60;;;3.78;;
23078;SDS011;11707;50.830;4.364;2023-03-14T04:39:16;7.50;;;4.30;;
23078;SDS011;11707;50.830;4.364;2023-03-14T04:41:42;11.23;;;4.82;;
23078;SDS011;11707;50.830;4.364;2023-03-14T04:44:09;7.32;;;4.65;;
23078;SDS011;11707;50.830;4.364;2023-03-14T04:46:35;10.07;;;5.00;;
23078;SDS011;11707;50.830;4.364;2023-03-14T04:49:01;10.35;;;5.57;;
23078;SDS011;11707;50.830;4.364;2023-03-14T04:51:26;11.32;;;4.60;;
23078;SDS011;11707;50.830;4.364;2023-03-14T04:53:52;8.27;;;3.67;;
23078;SDS011;11707;50.830;4.364;2023-03-14T04:56:19;9.27;;;3.78;;
23078;SDS011;11707;50.830;4.364;2023-03-14T04:58:45;9.95;;;4.32;;
23078;SDS011;11707;50.830;4.364;2023-03-14T05:01:11;8.82;;;4.40;;
23078;SDS011;11707;50.830;4.364;2023-03-14T05:03:36;5.55;;;3.35;;
23078;SDS011;11707;50.830;4.364;2023-03-14T05:06:03;7.18;;;3.67;;
23078;SDS011;11707;50.830;4.364;2023-03-14T05:08:29;12.20;;;3.83;;
23078;SDS011;11707;50.830;4.364;2023-03-14T05:10:55;8.45;;;3.45;;
23078;SDS011;11707;50.830;4.364;2023-03-14T05:13:24;7.47;;;2.70;;
23078;SDS011;11707;50.830;4.364;2023-03-14T05:15:50;8.23;;;2.60;;
23078;SDS011;11707;50.830;4.364;2023-03-14T05:18:16;7.10;;;2.95;;
23078;SDS011;11707;50.830;4.364;2023-03-14T05:20:42;5.00;;;2.58;;
23078;SDS011;11707;50.830;4.364;2023-03-14T05:23:08;3.03;;;2.25;;
23078;SDS011;11707;50.830;4.364;2023-03-14T05:25:34;5.93;;;2.60;;
23078;SDS011;11707;50.830;4.364;2023-03-14T05:28:00;3.75;;;2.55;;
23078;SDS011;11707;50.830;4.364;2023-03-14T05:30:25;4.80;;;2.28;;
23078;SDS011;11707;50.830;4.364;2023-03-14T05:32:53;6.53;;;2.63;;
23078;SDS011;11707;50.830;4.364;2023-03-14T05:35:19;6.82;;;2.95;;
23078;SDS011;11707;50.830;4.364;2023-03-14T05:37:45;6.07;;;2.88;;
23078;SDS011;11707;50.830;4.364;2023-03-14T05:40:11;7.38;;;2.90;;
23078;SDS011;11707;50.830;4.364;2023-03-14T05:42:39;8.40;;;3.22;;
23078;SDS011;11707;50.830;4.364;2023-03-14T05:45:05;4.82;;;3.05;;
23078;SDS011;11707;50.830;4.364;2023-03-14T05:47:34;8.73;;;3.13;;
23078;SDS011;11707;50.830;4.364;2023-03-14T05:50:00;9.23;;;3.45;;
23078;SDS011;11707;50.830;4.364;2023-03-14T05:52:25;4.28;;;3.05;;
23078;SDS011;11707;50.830;4.364;2023-03-14T05:54:51;3.53;;;2.40;;
23078;SDS011;11707;50.830;4.364;2023-03-14T05:57:17;7.88;;;2.78;;
23078;SDS011;11707;50.830;4.364;2023-03-14T05:59:42;5.65;;;2.83;;
23078;SDS011;11707;50.830;4.364;2023-03-14T06:02:08;3.90;;;2.58;;
23078;SDS011;11707;50.830;4.364;2023-03-14T06:04:34;4.05;;;2.47;;
23078;SDS011;11707;50.830;4.364;2023-03-14T06:07:02;3.85;;;2.50;;
23078;SDS011;11707;50.830;4.364;2023-03-14T06:09:27;5.40;;;2.75;;
23078;SDS011;11707;50.830;4.364;2023-03-14T06:11:55;5.00;;;2.67;;
23078;SDS011;11707;50.830;4.364;2023-03-14T06:14:21;6.85;;;3.33;;
23078;SDS011;11707;50.830;4.364;2023-03-14T06:16:47;5.35;;;2.63;;
23078;SDS011;11707;50.830;4.364;2023-03-14T06:19:15;5.60;;;3.10;;
23078;SDS011;11707;50.830;4.364;2023-03-14T06:21:44;5.65;;;3.08;;
23078;SDS011;11707;50.830;4.364;2023-03-14T06:24:10;8.07;;;3.70;;
23078;SDS011;11707;50.830;4.364;2023-03-14T06:26:35;5.75;;;3.33;;
23078;SDS011;11707;50.830;4.364;2023-03-14T06:29:01;4.75;;;3.38;;
23078;SDS011;11707;50.830;4.364;2023-03-14T06:31:29;8.27;;;3.58;;
23078;SDS011;11707;50.830;4.364;2023-03-14T06:33:55;6.78;;;3.70;;
23078;SDS011;11707;50.830;4.364;2023-03-14T06:36:21;5.93;;;3.53;;
23078;SDS011;11707;50.830;4.364;2023-03-14T06:38:47;9.43;;;3.72;;
23078;SDS011;11707;50.830;4.364;2023-03-14T06:41:12;5.80;;;3.17;;
23078;SDS011;11707;50.830;4.364;2023-03-14T06:43:38;7.60;;;3.00;;
23078;SDS011;11707;50.830;4.364;2023-03-14T06:46:04;3.50;;;2.55;;
23078;SDS011;11707;50.830;4.364;2023-03-14T06:48:30;3.92;;;2.78;;
23078;SDS011;11707;50.830;4.364;2023-03-14T06:50:56;3.40;;;2.15;;
23078;SDS011;11707;50.830;4.364;2023-03-14T06:53:22;3.03;;;2.17;;
23078;SDS011;11707;50.830;4.364;2023-03-14T06:55:47;4.25;;;1.30;;
23078;SDS011;11707;50.830;4.364;2023-03-14T06:58:13;6.47;;;2.35;;
23078;SDS011;11707;50.830;4.364;2023-03-14T07:00:42;2.15;;;1.70;;
23078;SDS011;11707;50.830;4.364;2023-03-14T07:03:07;9.90;;;2.40;;
23078;SDS011;11707;50.830;4.364;2023-03-14T07:05:37;10.00;;;2.65;;
23078;SDS011;11707;50.830;4.364;2023-03-14T07:08:05;7.45;;;1.92;;
23078;SDS011;11707;50.830;4.364;2023-03-14T07:10:31;4.45;;;2.55;;
23078;SDS011;11707;50.830;4.364;2023-03-14T07:12:57;3.88;;;1.60;;
23078;SDS011;11707;50.830;4.364;2023-03-14T07:15:23;2.53;;;1.98;;
23078;SDS011;11707;50.830;4.364;2023-03-14T07:17:48;4.43;;;1.90;;
23078;SDS011;11707;50.830;4.364;2023-03-14T07:20:14;4.28;;;2.15;;
23078;SDS011;11707;50.830;4.364;2023-03-14T07:22:40;4.32;;;1.75;;
23078;SDS011;11707;50.830;4.364;2023-03-14T07:25:08;6.22;;;1.88;;
23078;SDS011;11707;50.830;4.364;2023-03-14T07:27:37;3.25;;;2.00;;
23078;SDS011;11707;50.830;4.364;2023-03-14T07:30:03;4.85;;;1.88;;
23078;SDS011;11707;50.830;4.364;2023-03-14T07:32:29;3.03;;;2.20;;
23078;SDS011;11707;50.830;4.364;2023-03-14T07:34:57;6.15;;;2.58;;
23078;SDS011;11707;50.830;4.364;2023-03-14T07:37:23;3.83;;;2.28;;
23078;SDS011;11707;50.830;4.364;2023-03-14T07:39:48;4.60;;;2.20;;
23078;SDS011;11707;50.830;4.364;2023-03-14T07:42:14;3.58;;;1.25;;
23078;SDS011;11707;50.830;4.364;2023-03-14T07:44:40;3.53;;;1.98;;
23078;SDS011;11707;50.830;4.364;2023-03-14T07:47:05;4.20;;;2.17;;
23078;SDS011;11707;50.830;4.364;2023-03-14T07:49:31;9.85;;;2.28;;
23078;SDS011;11707;50.830;4.364;2023-03-14T07:51:57;4.35;;;2.47;;
23078;SDS011;11707;50.830;4.364;2023-03-14T07:54:24;9.15;;;2.60;;
23078;SDS011;11707;50.830;4.364;2023-03-14T07:56:50;3.83;;;2.40;;
23078;SDS011;11707;50.830;4.364;2023-03-14T07:59:17;6.32;;;3.63;;
23078;SDS011;11707;50.830;4.364;2023-03-14T08:01:43;5.82;;;2.40;;
23078;SDS011;11707;50.830;4.364;2023-03-14T08:04:09;6.75;;;3.28;;
23078;SDS011;11707;50.830;4.364;2023-03-14T08:06:35;7.45;;;3.38;;
23078;SDS011;11707;50.830;4.364;2023-03-14T08:09:01;5.88;;;3.17;;
23078;SDS011;11707;50.830;4.364;2023-03-14T08:11:30;5.22;;;2.78;;
23078;SDS011;11707;50.830;4.364;2023-03-14T08:13:56;4.55;;;2.35;;
23078;SDS011;11707;50.830;4.364;2023-03-14T08:16:23;8.18;;;3.72;;
23078;SDS011;11707;50.830;4.364;2023-03-14T08:18:49;6.88;;;3.60;;
23078;SDS011;11707;50.830;4.364;2023-03-14T08:21:15;4.53;;;3.13;;
23078;SDS011;11707;50.830;4.364;2023-03-14T08:23:40;4.20;;;2.70;;
23078;SDS011;11707;50.830;4.364;2023-03-14T08:26:06;8.27;;;3.08;;
23078;SDS011;11707;50.830;4.364;2023-03-14T08:28:34;5.57;;;2.90;;
23078;SDS011;11707;50.830;4.364;2023-03-14T08:31:00;6.88;;;2.35;;
23078;SDS011;11707;50.830;4.364;2023-03-14T08:33:29;4.93;;;2.38;;
23078;SDS011;11707;50.830;4.364;2023-03-14T08:35:55;5.13;;;2.55;;
23078;SDS011;11707;50.830;4.364;2023-03-14T08:38:22;7.78;;;1.77;;
23078;SDS011;11707;50.830;4.364;2023-03-14T08:40:48;4.88;;;1.90;;
23078;SDS011;11707;50.830;4.364;2023-03-14T08:43:15;6.97;;;2.95;;
23078;SDS011;11707;50.830;4.364;2023-03-14T08:45:41;7.65;;;2.53;;
23078;SDS011;11707;50.830;4.364;2023-03-14T08:48:06;6.03;;;2.05;;
23078;SDS011;11707;50.830;4.364;2023-03-14T08:50:32;4.68;;;2.28;;
23078;SDS011;11707;50.830;4.364;2023-03-14T08:52:58;4.50;;;2.00;;
23078;SDS011;11707;50.830;4.364;2023-03-14T08:55:25;8.68;;;2.80;;
23078;SDS011;11707;50.830;4.364;2023-03-14T08:57:55;10.38;;;1.92;;
23078;SDS011;11707;50.830;4.364;2023-03-14T09:00:27;7.65;;;2.92;;
23078;SDS011;11707;50.830;4.364;2023-03-14T09:02:53;6.10;;;2.17;;
23078;SDS011;11707;50.830;4.364;2023-03-14T09:05:19;9.73;;;3.75;;
23078;SDS011;11707;50.830;4.364;2023-03-14T09:07:45;8.65;;;3.05;;
23078;SDS011;11707;50.830;4.364;2023-03-14T09:10:11;3.85;;;2.55;;
23078;SDS011;11707;50.830;4.364;2023-03-14T09:12:37;8.07;;;3.05;;
23078;SDS011;11707;50.830;4.364;2023-03-14T09:15:03;3.88;;;1.88;;
23078;SDS011;11707;50.830;4.364;2023-03-14T09:17:29;5.35;;;1.95;;
23078;SDS011;11707;50.830;4.364;2023-03-14T09:19:55;9.00;;;2.97;;
23078;SDS011;11707;50.830;4.364;2023-03-14T09:22:20;7.30;;;2.20;;
23078;SDS011;11707;50.830;4.364;2023-03-14T09:24:46;5.88;;;2.30;;
23078;SDS011;11707;50.830;4.364;2023-03-14T09:27:12;6.30;;;2.47;;
23078;SDS011;11707;50.830;4.364;2023-03-14T09:29:38;10.18;;;2.58;;
23078;SDS011;11707;50.830;4.364;2023-03-14T09:32:04;6.45;;;2.10;;
23078;SDS011;11707;50.830;4.364;2023-03-14T09:34:29;5.93;;;2.22;;
23078;SDS011;11707;50.830;4.364;2023-03-14T09:36:57;7.05;;;1.95;;
23078;SDS011;11707;50.830;4.364;2023-03-14T09:39:24;7.40;;;2.38;;
23078;SDS011;11707;50.830;4.364;2023-03-14T09:41:50;9.35;;;3.10;;
23078;SDS011;11707;50.830;4.364;2023-03-14T09:44:27;5.65;;;2.00;;
23078;SDS011;11707;50.830;4.364;2023-03-14T09:46:55;12.40;;;2.33;;
23078;SDS011;11707;50.830;4.364;2023-03-14T09:49:29;8.23;;;2.00;;
23078;SDS011;11707;50.830;4.364;2023-03-14T09:52:00;15.60;;;3.75;;
23078;SDS011;11707;50.830;4.364;2023-03-14T09:54:31;7.50;;;2.53;;
23078;SDS011;11707;50.830;4.364;2023-03-14T09:57:03;6.57;;;2.83;;
23078;SDS011;11707;50.830;4.364;2023-03-14T09:59:30;8.65;;;2.40;;
23078;SDS011;11707;50.830;4.364;2023-03-14T10:02:11;8.00;;;2.20;;
23078;SDS011;11707;50.830;4.364;2023-03-14T10:04:43;5.18;;;2.20;;
23078;SDS011;11707;50.830;4.364;2023-03-14T10:07:14;6.95;;;2.05;;
23078;SDS011;11707;50.830;4.364;2023-03-14T10:09:44;7.50;;;3.10;;
23078;SDS011;11707;50.830;4.364;2023-03-14T10:12:10;7.95;;;2.30;;
23078;SDS011;11707;50.830;4.364;2023-03-14T10:14:37;5.25;;;2.05;;
23078;SDS011;11707;50.830;4.364;2023-03-14T10:17:14;9.00;;;1.65;;
23078;SDS011;11707;50.830;4.364;2023-03-14T10:19:51;4.28;;;1.55;;
23078;SDS011;11707;50.830;4.364;2023-03-14T10:22:19;8.60;;;1.65;;
23078;SDS011;11707;50.830;4.364;2023-03-14T10:24:46;7.47;;;2.47;;
23078;SDS011;11707;50.830;4.364;2023-03-14T10:27:23;5.63;;;1.00;;
23078;SDS011;11707;50.830;4.364;2023-03-14T10:30:03;5.35;;;2.08;;
23078;SDS011;11707;50.830;4.364;2023-03-14T10:32:34;7.15;;;1.80;;
23078;SDS011;11707;50.830;4.364;2023-03-14T10:35:07;10.15;;;2.67;;
23078;SDS011;11707;50.830;4.364;2023-03-14T10:37:51;6.70;;;2.00;;
23078;SDS011;11707;50.830;4.364;2023-03-14T10:40:28;8.50;;;1.80;;
23078;SDS011;11707;50.830;4.364;2023-03-14T10:42:59;6.85;;;1.77;;
23078;SDS011;11707;50.830;4.364;2023-03-14T10:45:28;7.25;;;1.58;;
23078;SDS011;11707;50.830;4.364;2023-03-14T10:48:13;4.05;;;1.13;;
23078;SDS011;11707;50.830;4.364;2023-03-14T10:50:58;6.82;;;1.48;;
23078;SDS011;11707;50.830;4.364;2023-03-14T10:53:44;8.35;;;2.25;;
23078;SDS011;11707;50.830;4.364;2023-03-14T10:56:19;6.35;;;2.55;;
23078;SDS011;11707;50.830;4.364;2023-03-14T10:58:47;5.22;;;1.65;;
23078;SDS011;11707;50.830;4.364;2023-03-14T11:09:35;4.45;;;2.03;;
23078;SDS011;11707;50.830;4.364;2023-03-14T11:14:54;13.90;;;2.65;;
23078;SDS011;11707;50.830;4.364;2023-03-14T11:22:43;5.68;;;2.33;;
23078;SDS011;11707;50.830;4.364;2023-03-14T11:25:18;6.65;;;1.73;;
23078;SDS011;11707;50.830;4.364;2023-03-14T11:27:55;10.30;;;1.80;;
23078;SDS011;11707;50.830;4.364;2023-03-14T11:30:35;6.35;;;1.60;;
23078;SDS011;11707;50.830;4.364;2023-03-14T11:33:13;3.30;;;1.38;;
23078;SDS011;11707;50.830;4.364;2023-03-14T11:40:57;2.88;;;0.93;;
23078;SDS011;11707;50.830;4.364;2023-03-14T11:43:32;2.33;;;0.90;;
23078;SDS011;11707;50.830;4.364;2023-03-14T11:46:07;0.77;;;0.75;;
23078;SDS011;11707;50.830;4.364;2023-03-14T11:48:49;2.88;;;0.65;;
23078;SDS011;11707;50.830;4.364;2023-03-14T11:51:38;3.40;;;0.77;;
23078;SDS011;11707;50.830;4.364;2023-03-14T11:57:03;3.17;;;0.80;;
23078;SDS011;11707;50.830;4.364;2023-03-14T12:02:21;2.90;;;0.73;;
23078;SDS011;11707;50.830;4.364;2023-03-14T12:05:01;1.98;;;0.63;;
23078;SDS011;11707;50.830;4.364;2023-03-14T12:10:51;2.53;;;0.88;;
23078;SDS011;11707;50.830;4.364;2023-03-14T12:13:19;5.15;;;1.20;;
23078;SDS011;11707;50.830;4.364;2023-03-14T12:15:56;3.30;;;1.20;;
23078;SDS011;11707;50.830;4.364;2023-03-14T12:18:34;2.58;;;1.30;;
23078;SDS011;11707;50.830;4.364;2023-03-14T12:21:07;4.40;;;2.13;;
23078;SDS011;11707;50.830;4.364;2023-03-14T12:23:41;4.05;;;1.17;;
23078;SDS011;11707;50.830;4.364;2023-03-14T12:26:16;6.32;;;1.30;;
23078;SDS011;11707;50.830;4.364;2023-03-14T12:34:22;3.50;;;1.40;;
23078;SDS011;11707;50.830;4.364;2023-03-14T12:37:22;7.57;;;2.42;;
23078;SDS011;11707;50.830;4.364;2023-03-14T12:40:15;5.22;;;2.10;;
23078;SDS011;11707;50.830;4.364;2023-03-14T12:42:59;6.78;;;2.03;;
23078;SDS011;11707;50.830;4.364;2023-03-14T12:45:31;4.07;;;2.28;;
23078;SDS011;11707;50.830;4.364;2023-03-14T12:48:15;4.10;;;2.65;;
23078;SDS011;11707;50.830;4.364;2023-03-14T12:50:54;5.53;;;2.70;;
23078;SDS011;11707;50.830;4.364;2023-03-14T12:53:40;3.50;;;2.15;;
23078;SDS011;11707;50.830;4.364;2023-03-14T12:59:18;9.02;;;2.38;;
23078;SDS011;11707;50.830;4.364;2023-03-14T13:02:38;6.30;;;1.77;;
23078;SDS011;11707;50.830;4.364;2023-03-14T13:05:12;3.45;;;1.73;;
23078;SDS011;11707;50.830;4.364;2023-03-14T13:10:22;4.88;;;1.92;;
23078;SDS011;11707;50.830;4.364;2023-03-14T13:15:46;7.57;;;2.90;;
23078;SDS011;11707;50.830;4.364;2023-03-14T13:18:17;5.70;;;2.30;;
23078;SDS011;11707;50.830;4.364;2023-03-14T13:21:05;3.72;;;2.20;;
23078;SDS011;11707;50.830;4.364;2023-03-14T13:23:38;8.98;;;2.78;;
23078;SDS011;11707;50.830;4.364;2023-03-14T13:26:05;8.93;;;2.97;;
23078;SDS011;11707;50.830;4.364;2023-03-14T13:28:36;8.82;;;2.88;;
23078;SDS011;11707;50.830;4.364;2023-03-14T13:31:02;6.15;;;2.58;;
23078;SDS011;11707;50.830;4.364;2023-03-14T13:33:32;7.25;;;2.08;;
23078;SDS011;11707;50.830;4.364;2023-03-14T13:36:02;8.07;;;3.25;;
23078;SDS011;11707;50.830;4.364;2023-03-14T13:38:30;10.23;;;2.83;;
23078;SDS011;11707;50.830;4.364;2023-03-14T13:40:59;20.88;;;3.80;;
23078;SDS011;11707;50.830;4.364;2023-03-14T13:43:32;15.27;;;3.45;;
23078;SDS011;11707;50.830;4.364;2023-03-14T13:48:31;13.63;;;2.53;;
23078;SDS011;11707;50.830;4.364;2023-03-14T13:51:03;16.85;;;3.28;;
23078;SDS011;11707;50.830;4.364;2023-03-14T13:53:32;13.75;;;3.10;;
23078;SDS011;11707;50.830;4.364;2023-03-14T13:56:09;17.83;;;3.17;;
23078;SDS011;11707;50.830;4.364;2023-03-14T13:58:36;20.42;;;3.33;;
23078;SDS011;11707;50.830;4.364;2023-03-14T14:01:05;16.70;;;3.95;;
23078;SDS011;11707;50.830;4.364;2023-03-14T14:03:37;16.73;;;3.17;;
23078;SDS011;11707;50.830;4.364;2023-03-14T14:06:08;16.65;;;2.88;;
23078;SDS011;11707;50.830;4.364;2023-03-14T14:08:54;14.68;;;2.72;;
23078;SDS011;11707;50.830;4.364;2023-03-14T14:11:32;20.58;;;3.97;;
23078;SDS011;11707;50.830;4.364;2023-03-14T14:14:29;13.02;;;2.88;;
23078;SDS011;11707;50.830;4.364;2023-03-14T14:16:59;16.13;;;3.55;;
23078;SDS011;11707;50.830;4.364;2023-03-14T14:19:27;11.70;;;3.38;;
23078;SDS011;11707;50.830;4.364;2023-03-14T14:21:57;20.25;;;3.08;;
23078;SDS011;11707;50.830;4.364;2023-03-14T14:24:23;18.13;;;3.25;;
23078;SDS011;11707;50.830;4.364;2023-03-14T14:26:53;35.17;;;3.35;;
23078;SDS011;11707;50.830;4.364;2023-03-14T14:29:28;11.55;;;2.35;;
23078;SDS011;11707;50.830;4.364;2023-03-14T14:34:46;8.13;;;1.88;;
23078;SDS011;11707;50.830;4.364;2023-03-14T14:37:22;8.38;;;2.08;;
23078;SDS011;11707;50.830;4.364;2023-03-14T14:39:57;12.20;;;2.15;;
23078;SDS011;11707;50.830;4.364;2023-03-14T14:42:25;3.97;;;1.25;;
23078;SDS011;11707;50.830;4.364;2023-03-14T14:44:55;11.98;;;2.13;;
23078;SDS011;11707;50.830;4.364;2023-03-14T14:47:22;27.52;;;2.17;;
23078;SDS011;11707;50.830;4.364;2023-03-14T14:49:51;4.55;;;1.02;;
23078;SDS011;11707;50.830;4.364;2023-03-14T14:52:21;4.03;;;1.50;;
23078;SDS011;11707;50.830;4.364;2023-03-14T14:55:00;3.13;;;0.95;;
23078;SDS011;11707;50.830;4.364;2023-03-14T14:57:28;1.23;;;0.60;;
23078;SDS011;11707;50.830;4.364;2023-03-14T15:00:04;3.65;;;0.85;;
23078;SDS011;11707;50.830;4.364;2023-03-14T15:02:45;6.80;;;0.90;;
23078;SDS011;11707;50.830;4.364;2023-03-14T15:07:42;4.00;;;0.50;;
23078;SDS011;11707;50.830;4.364;2023-03-14T15:10:09;2.05;;;0.60;;
23078;SDS011;11707;50.830;4.364;2023-03-14T15:12:37;2.95;;;0.60;;
23078;SDS011;11707;50.830;4.364;2023-03-14T15:15:03;1.27;;;0.60;;
23078;SDS011;11707;50.830;4.364;2023-03-14T15:17:32;7.93;;;0.75;;
23078;SDS011;11707;50.830;4.364;2023-03-14T15:19:57;2.35;;;0.80;;
23078;SDS011;11707;50.830;4.364;2023-03-14T15:22:23;5.75;;;0.68;;
23078;SDS011;11707;50.830;4.364;2023-03-14T15:24:49;5.18;;;0.68;;
23078;SDS011;11707;50.830;4.364;2023-03-14T15:27:16;4.13;;;1.25;;
23078;SDS011;11707;50.830;4.364;2023-03-14T15:29:43;6.45;;;0.70;;
23078;SDS011;11707;50.830;4.364;2023-03-14T15:32:13;3.30;;;1.27;;
23078;SDS011;11707;50.830;4.364;2023-03-14T15:34:41;3.65;;;0.95;;
23078;SDS011;11707;50.830;4.364;2023-03-14T15:37:14;5.38;;;1.25;;
23078;SDS011;11707;50.830;4.364;2023-03-14T15:39:44;3.75;;;1.05;;
23078;SDS011;11707;50.830;4.364;2023-03-14T15:42:13;3.97;;;1.13;;
23078;SDS011;11707;50.830;4.364;2023-03-14T15:44:38;5.75;;;1.80;;
23078;SDS011;11707;50.830;4.364;2023-03-14T15:47:08;7.15;;;1.52;;
23078;SDS011;11707;50.830;4.364;2023-03-14T15:49:35;9.88;;;2.85;;
23078;SDS011;11707;50.830;4.364;2023-03-14T15:52:01;3.78;;;1.27;;
23078;SDS011;11707;50.830;4.364;2023-03-14T15:54:27;4.35;;;1.17;;
23078;SDS011;11707;50.830;4.364;2023-03-14T15:56:57;6.32;;;1.08;;